createdAt,value
2024-05-09T00:03:00.816Z,4.43
2024-05-09T00:06:04.241Z,4.82
2024-05-09T00:09:10.432Z,5.38
2024-05-09T00:12:14.156Z,6.75
2024-05-09T00:15:17.895Z,6.00
2024-05-09T00:18:21.386Z,6.78
2024-05-09T00:21:25.279Z,7.50
2024-05-09T00:24:28.526Z,6.25
2024-05-09T00:27:31.549Z,5.90
2024-05-09T00:30:36.983Z,5.85
2024-05-09T00:33:41.874Z,7.78
2024-05-09T00:36:45.814Z,7.35
2024-05-09T00:39:49.858Z,7.10
2024-05-09T00:42:55.966Z,7.15
2024-05-09T00:46:02.535Z,7.85
2024-05-09T00:49:06.764Z,7.28
2024-05-09T00:52:14.172Z,7.72
2024-05-09T00:55:18.309Z,7.22
2024-05-09T00:58:24.483Z,7.93
2024-05-09T01:01:28.008Z,6.68
2024-05-09T01:04:31.947Z,6.93
2024-05-09T01:07:36.087Z,7.78
2024-05-09T01:10:43.740Z,7.63
2024-05-09T01:13:51.832Z,6.28
2024-05-09T01:16:58.874Z,5.82
2024-05-09T01:20:05.746Z,5.25
2024-05-09T01:23:10.710Z,6.53
2024-05-09T01:26:14.044Z,6.00
2024-05-09T01:29:18.534Z,5.35
2024-05-09T01:32:21.879Z,6.15
2024-05-09T01:35:25.748Z,6.05
2024-05-09T01:38:29.757Z,6.45
2024-05-09T01:41:33.038Z,5.93
2024-05-09T01:44:39.131Z,6.53
2024-05-09T01:47:43.090Z,5.80
2024-05-09T01:50:47.198Z,6.03
2024-05-09T01:53:51.953Z,7.45
2024-05-09T01:56:58.939Z,4.60
2024-05-09T02:00:03.022Z,5.40
2024-05-09T02:03:16.736Z,5.57
2024-05-09T02:06:20.935Z,4.40
2024-05-09T02:09:28.558Z,5.13
2024-05-09T02:12:32.361Z,3.97
2024-05-09T02:15:35.558Z,2.92
2024-05-09T02:18:41.223Z,3.75
2024-05-09T02:21:45.288Z,2.35
2024-05-09T02:24:49.667Z,2.30
2024-05-09T02:27:53.889Z,1.83
2024-05-09T02:30:58.844Z,2.20
2024-05-09T02:34:02.217Z,1.55
2024-05-09T02:37:06.601Z,1.50
2024-05-09T02:40:14.616Z,2.00
2024-05-09T02:43:21.950Z,1.67
2024-05-09T02:46:25.781Z,1.40
2024-05-09T02:49:30.247Z,1.55
2024-05-09T02:52:34.119Z,1.17
2024-05-09T02:55:39.320Z,1.50
2024-05-09T02:58:43.366Z,1.50
2024-05-09T03:01:47.525Z,1.30
2024-05-09T03:04:51.488Z,1.50
2024-05-09T03:07:57.684Z,3.50
2024-05-09T03:11:01.660Z,4.40
2024-05-09T03:14:04.904Z,3.22
2024-05-09T03:17:08.847Z,2.10
2024-05-09T03:20:20.522Z,2.20
2024-05-09T03:23:30.664Z,1.42
2024-05-09T03:26:35.036Z,1.40
2024-05-09T03:29:38.240Z,4.40
2024-05-09T03:32:45.056Z,5.50
2024-05-09T03:35:49.749Z,4.30
2024-05-09T03:38:53.743Z,4.30
2024-05-09T03:42:00.184Z,5.60
2024-05-09T03:45:03.890Z,3.78
2024-05-09T03:48:08.463Z,4.30
2024-05-09T03:51:13.149Z,4.47
2024-05-09T03:54:19.388Z,3.83
2024-05-09T03:57:23.691Z,4.80
2024-05-09T04:00:35.504Z,2.40
2024-05-09T04:03:43.182Z,3.35
2024-05-09T04:06:46.326Z,2.90
2024-05-09T04:09:50.023Z,2.88
2024-05-09T04:12:57.864Z,2.35
2024-05-09T04:16:01.733Z,4.90
2024-05-09T04:19:06.267Z,3.15
2024-05-09T04:22:10.668Z,3.08
2024-05-09T04:25:15.351Z,2.60
2024-05-09T04:28:19.859Z,2.30
2024-05-09T04:31:23.721Z,2.30
2024-05-09T04:34:27.529Z,3.08
2024-05-09T04:37:31.705Z,1.85
2024-05-09T04:40:37.408Z,2.08
2024-05-09T04:43:42.185Z,1.48
2024-05-09T04:46:47.700Z,1.88
2024-05-09T04:49:52.606Z,1.98
2024-05-09T04:52:58.358Z,1.80
2024-05-09T04:56:01.949Z,1.85
2024-05-09T04:59:05.877Z,1.75
2024-05-09T05:02:09.239Z,1.70
2024-05-09T05:05:12.673Z,1.27
2024-05-09T05:08:18.650Z,1.33
2024-05-09T05:11:22.620Z,1.20
2024-05-09T05:14:26.571Z,1.15
2024-05-09T05:17:29.950Z,1.05
2024-05-09T05:20:34.483Z,1.73
2024-05-09T05:23:37.999Z,1.92
2024-05-09T05:26:41.658Z,1.40
2024-05-09T05:29:45.929Z,1.38
2024-05-09T05:32:50.391Z,1.65
2024-05-09T05:35:53.626Z,1.95
2024-05-09T05:38:59.873Z,2.30
2024-05-09T05:42:03.501Z,2.13
2024-05-09T05:45:09.655Z,1.88
2024-05-09T05:48:17.283Z,1.60
2024-05-09T05:51:21.535Z,1.98
2024-05-09T05:54:24.766Z,2.00
2024-05-09T05:57:31.518Z,1.50
2024-05-09T06:00:39.222Z,1.83
2024-05-09T06:03:44.310Z,1.35
2024-05-09T06:06:49.423Z,1.40
2024-05-09T06:09:52.632Z,2.20
2024-05-09T06:12:55.701Z,1.30
2024-05-09T06:16:03.048Z,3.35
2024-05-09T06:19:09.919Z,2.05
2024-05-09T06:22:13.430Z,1.83
2024-05-09T06:25:17.294Z,2.08
2024-05-09T06:28:21.299Z,2.00
2024-05-09T06:31:25.412Z,2.63
2024-05-09T06:34:29.396Z,2.30
2024-05-09T06:37:32.575Z,2.60
2024-05-09T06:40:39.108Z,2.97
2024-05-09T06:43:44.148Z,5.30
2024-05-09T06:46:50.595Z,2.53
2024-05-09T06:52:56.955Z,2.45
2024-05-09T06:56:01.988Z,2.47
2024-05-09T06:59:05.846Z,2.50
2024-05-09T07:02:09.065Z,5.97
2024-05-09T07:05:13.300Z,2.15
2024-05-09T07:08:17.347Z,2.40
2024-05-09T07:11:21.603Z,2.63
2024-05-09T07:14:25.674Z,3.05
2024-05-09T07:17:29.619Z,3.35
2024-05-09T07:20:34.962Z,3.15
2024-05-09T07:23:39.374Z,2.47
2024-05-09T07:26:42.597Z,3.25
2024-05-09T07:29:46.261Z,2.85
2024-05-09T07:32:52.166Z,3.15
2024-05-09T07:36:01.230Z,3.20
2024-05-09T07:39:06.365Z,3.10
2024-05-09T07:42:11.320Z,3.13
2024-05-09T07:45:38.935Z,2.92
2024-05-09T07:53:17.402Z,3.20
2024-05-09T07:55:10.411Z,3.78
2024-05-09T07:58:14.042Z,3.47
2024-05-09T08:01:18.442Z,2.95
2024-05-09T08:04:26.720Z,3.25
2024-05-09T08:07:32.182Z,3.45
2024-05-09T08:10:36.137Z,3.60
2024-05-09T08:13:40.078Z,3.20
2024-05-09T08:16:43.965Z,5.65
2024-05-09T08:19:48.599Z,4.07
2024-05-09T08:22:52.939Z,4.75
2024-05-09T08:25:56.667Z,3.75
2024-05-09T08:29:04.122Z,3.30
2024-05-09T08:32:14.057Z,4.53
2024-05-09T08:35:20.199Z,4.38
2024-05-09T08:38:25.278Z,4.80
2024-05-09T08:41:33.565Z,4.68
2024-05-09T08:44:38.618Z,3.53
2024-05-09T08:47:44.106Z,3.60
2024-05-09T08:50:50.893Z,3.53
2024-05-09T08:53:54.390Z,4.22
2024-05-09T08:56:58.193Z,4.03
2024-05-09T09:00:15.015Z,4.32
2024-05-09T09:03:27.467Z,3.58
2024-05-09T09:06:34.023Z,3.70
2024-05-09T09:09:44.408Z,3.60
2024-05-09T09:13:10.060Z,4.90
2024-05-09T09:16:13.842Z,3.33
2024-05-09T09:19:18.510Z,2.72
2024-05-09T09:22:23.089Z,2.20
2024-05-09T09:25:26.357Z,1.95
2024-05-09T09:28:30.560Z,1.95
2024-05-09T09:31:38.172Z,1.83
2024-05-09T09:34:42.253Z,1.40
2024-05-09T09:37:47.237Z,2.17
2024-05-09T09:40:51.493Z,1.63
2024-05-09T09:43:57.898Z,1.60
2024-05-09T09:47:04.292Z,1.60
2024-05-09T09:50:14.211Z,1.73
2024-05-09T09:53:21.763Z,1.50
2024-05-09T09:56:26.279Z,1.70
2024-05-09T09:59:31.161Z,1.20
2024-05-09T10:02:37.286Z,1.25
2024-05-09T10:05:44.013Z,1.45
2024-05-09T10:08:51.990Z,1.45
2024-05-09T10:12:00.374Z,1.50
2024-05-09T10:15:12.402Z,7.57
2024-05-09T10:18:18.549Z,1.15
2024-05-09T10:21:22.713Z,1.63
2024-05-09T10:24:25.969Z,1.60
2024-05-09T10:27:31.111Z,1.60
2024-05-09T10:30:36.368Z,1.60
2024-05-09T10:33:52.318Z,2.28
2024-05-09T10:37:05.072Z,3.05
2024-05-09T10:40:14.258Z,2.35
2024-05-09T10:43:25.847Z,3.95
2024-05-09T10:46:29.228Z,2.05
2024-05-09T10:49:33.332Z,2.08
2024-05-09T10:52:36.587Z,1.52
2024-05-09T10:55:39.982Z,1.60
2024-05-09T10:58:46.519Z,1.83
2024-05-09T11:01:51.307Z,1.45
2024-05-09T11:04:55.963Z,2.75
2024-05-09T11:07:59.501Z,2.80
2024-05-09T11:11:08.477Z,2.67
2024-05-09T11:14:14.136Z,4.00
2024-05-09T11:17:17.424Z,3.22
2024-05-09T11:20:29.105Z,5.28
2024-05-09T11:23:33.080Z,3.70
2024-05-09T11:26:37.226Z,3.88
2024-05-09T11:32:50.422Z,4.15
2024-05-09T11:35:54.524Z,4.68
2024-05-09T11:38:58.459Z,3.92
2024-05-09T11:42:04.585Z,5.47
2024-05-09T11:45:10.481Z,5.05
2024-05-09T11:48:14.730Z,5.35
2024-05-09T11:51:18.467Z,4.05
2024-05-09T11:54:22.262Z,2.83
2024-05-09T11:57:29.070Z,3.25
2024-05-09T12:00:36.994Z,3.60
2024-05-09T12:03:41.627Z,4.47
2024-05-09T12:06:47.257Z,4.13
2024-05-09T12:09:50.615Z,4.15
2024-05-09T12:12:55.443Z,5.18
2024-05-09T12:15:59.680Z,5.15
2024-05-09T12:19:05.726Z,5.85
2024-05-09T12:22:10.016Z,7.38
2024-05-09T12:25:13.859Z,8.68
2024-05-09T12:28:19.257Z,10.68
2024-05-09T12:31:23.109Z,9.38
2024-05-09T12:34:27.225Z,8.07
2024-05-09T12:37:30.618Z,4.20
2024-05-09T12:40:37.078Z,3.65
2024-05-09T12:43:42.774Z,4.38
2024-05-09T12:46:46.064Z,4.88
2024-05-09T12:49:49.380Z,4.70
2024-05-09T12:52:53.094Z,4.13
2024-05-09T12:56:01.614Z,3.58
2024-05-09T12:59:07.981Z,4.70
2024-05-09T13:02:12.694Z,4.35
2024-05-09T13:05:16.972Z,5.40
2024-05-09T13:08:21.168Z,4.40
2024-05-09T13:11:24.971Z,4.13
2024-05-09T13:14:28.937Z,4.93
2024-05-09T13:17:33.900Z,4.82
2024-05-09T13:20:38.077Z,4.38
2024-05-09T13:23:43.806Z,4.95
2024-05-09T13:26:47.326Z,5.93
2024-05-09T13:29:50.560Z,7.15
2024-05-09T13:32:55.436Z,6.90
2024-05-09T13:35:58.599Z,7.80
2024-05-09T13:39:09.792Z,7.18
2024-05-09T13:42:13.757Z,8.60
2024-05-09T13:45:16.905Z,7.30
2024-05-09T13:48:20.339Z,8.82
2024-05-09T13:51:24.708Z,8.82
2024-05-09T13:54:27.749Z,9.52
2024-05-09T13:57:32.812Z,10.02
2024-05-09T14:00:44.680Z,8.10
2024-05-09T14:03:52.232Z,7.88
2024-05-09T14:06:56.147Z,8.85
2024-05-09T14:10:00.638Z,9.18
2024-05-09T14:13:07.448Z,9.88
2024-05-09T14:16:12.258Z,8.23
2024-05-09T14:19:16.811Z,7.95
2024-05-09T14:22:23.796Z,6.93
2024-05-09T14:25:33.115Z,6.85
2024-05-09T14:28:38.978Z,6.15
2024-05-09T14:31:42.199Z,6.60
2024-05-09T14:34:48.084Z,6.72
2024-05-09T14:37:51.297Z,3.33
2024-05-09T14:40:55.763Z,2.38
2024-05-09T14:44:02.472Z,3.15
2024-05-09T14:47:11.205Z,3.35
2024-05-09T14:50:23.687Z,2.95
2024-05-09T14:53:32.000Z,3.15
2024-05-09T14:56:35.874Z,2.53
2024-05-09T14:59:39.801Z,2.60
2024-05-09T15:02:46.560Z,2.35
2024-05-09T15:05:52.394Z,3.42
2024-05-09T15:08:57.718Z,3.00
2024-05-09T15:12:01.881Z,2.63
2024-05-09T15:15:09.030Z,3.67
2024-05-09T15:18:12.674Z,2.13
2024-05-09T15:21:16.676Z,1.92
2024-05-09T15:24:20.674Z,2.10
2024-05-09T15:27:24.138Z,1.70
2024-05-09T15:30:32.102Z,1.65
2024-05-09T15:33:37.691Z,1.65
2024-05-09T15:36:44.600Z,1.80
2024-05-09T15:42:54.176Z,2.25
2024-05-09T15:45:57.399Z,2.13
2024-05-09T15:49:02.335Z,1.58
2024-05-09T15:52:09.635Z,2.17
2024-05-09T15:55:14.415Z,1.83
2024-05-09T15:58:18.637Z,1.70
2024-05-09T16:01:23.172Z,1.95
2024-05-09T16:04:26.924Z,1.88
2024-05-09T16:07:30.535Z,2.47
2024-05-09T16:10:35.013Z,2.45
2024-05-09T16:13:39.962Z,2.13
2024-05-09T16:16:43.813Z,2.20
2024-05-09T16:19:47.532Z,1.67
2024-05-09T16:22:51.926Z,1.90
2024-05-09T16:25:55.540Z,1.83
2024-05-09T16:28:59.632Z,1.80
2024-05-09T16:32:05.768Z,1.70
2024-05-09T16:35:09.368Z,1.70
2024-05-09T16:38:13.640Z,2.00
2024-05-09T16:41:17.473Z,1.70
2024-05-09T16:44:21.181Z,1.95
2024-05-09T16:47:24.690Z,1.90
2024-05-09T16:50:32.295Z,2.40
2024-05-09T16:53:37.796Z,1.98
2024-05-09T16:56:41.312Z,1.90
2024-05-09T16:59:44.474Z,2.25
2024-05-09T17:02:48.249Z,1.67
2024-05-09T17:05:51.889Z,1.80
2024-05-09T17:09:01.975Z,2.10
2024-05-09T17:12:11.169Z,1.70
2024-05-09T17:15:15.046Z,1.50
2024-05-09T17:18:19.192Z,1.45
2024-05-09T17:21:23.422Z,1.77
2024-05-09T17:24:26.661Z,1.63
2024-05-09T17:27:30.412Z,1.70
2024-05-09T17:30:36.830Z,1.45
2024-05-09T17:33:43.913Z,1.30
2024-05-09T17:36:48.256Z,1.33
2024-05-09T17:39:51.767Z,1.35
2024-05-09T17:42:55.758Z,1.20
2024-05-09T17:46:00.196Z,1.45
2024-05-09T17:49:03.826Z,1.42
2024-05-09T17:52:10.792Z,1.23
2024-05-09T17:55:14.852Z,1.45
2024-05-09T17:58:19.689Z,1.50
2024-05-09T18:01:24.809Z,1.40
2024-05-09T18:04:31.102Z,0.93
2024-05-09T18:07:36.341Z,1.13
2024-05-09T18:10:41.967Z,1.10
2024-05-09T18:13:48.155Z,1.10
2024-05-09T18:16:52.492Z,1.20
2024-05-09T18:19:58.061Z,1.25
2024-05-09T18:23:01.529Z,0.77
2024-05-09T18:26:09.306Z,0.80
2024-05-09T18:29:12.734Z,0.80
2024-05-09T18:32:16.538Z,0.80
2024-05-09T18:35:20.761Z,0.70
2024-05-09T18:38:27.399Z,1.00
2024-05-09T18:41:30.946Z,0.68
2024-05-09T18:44:34.819Z,0.38
2024-05-09T18:47:38.408Z,0.50
2024-05-09T18:50:42.522Z,0.50
2024-05-09T18:53:46.043Z,0.82
2024-05-09T18:56:50.231Z,0.60
2024-05-09T18:59:53.894Z,0.47
2024-05-09T19:03:00.385Z,0.30
2024-05-09T19:06:05.037Z,0.20
2024-05-09T19:09:11.949Z,0.30
2024-05-09T19:12:16.308Z,0.57
2024-05-09T19:15:20.191Z,0.15
2024-05-09T19:18:23.608Z,0.20
2024-05-09T19:21:28.010Z,0.43
2024-05-09T19:24:31.404Z,0.10
2024-05-09T19:27:34.805Z,0.10
2024-05-09T19:30:41.702Z,0.20
2024-05-09T19:33:46.811Z,0.20
2024-05-09T19:36:52.573Z,0.30
2024-05-09T19:39:56.486Z,0.10
2024-05-09T19:43:00.446Z,0.10
2024-05-09T19:46:05.070Z,0.35
2024-05-09T19:49:11.707Z,0.00
2024-05-09T19:52:16.732Z,0.20
2024-05-09T19:55:20.121Z,0.10
2024-05-09T19:58:23.499Z,0.10
2024-05-09T20:01:30.622Z,0.30
2024-05-09T20:04:35.046Z,0.20
2024-05-09T20:07:39.356Z,0.60
2024-05-09T20:10:42.650Z,0.10
2024-05-09T20:13:47.071Z,0.17
2024-05-09T20:16:50.945Z,0.15
2024-05-09T20:19:55.623Z,0.22
2024-05-09T20:22:59.610Z,0.20
2024-05-09T20:26:03.115Z,0.20
2024-05-09T20:29:12.448Z,0.43
2024-05-09T20:32:15.810Z,0.40
2024-05-09T20:35:19.939Z,0.77
2024-05-09T20:38:23.458Z,0.30
2024-05-09T20:41:27.039Z,0.30
2024-05-09T20:44:31.205Z,0.40
2024-05-09T20:47:35.118Z,0.40
2024-05-09T20:50:41.454Z,0.77
2024-05-09T20:53:45.808Z,0.43
2024-05-09T20:56:49.044Z,0.45
2024-05-09T20:59:52.983Z,0.68
2024-05-09T21:02:56.510Z,0.20
2024-05-09T21:05:59.735Z,0.32
2024-05-09T21:09:03.663Z,0.20
2024-05-09T21:12:11.647Z,0.32
2024-05-09T21:15:16.044Z,0.28
2024-05-09T21:18:19.186Z,0.40
2024-05-09T21:21:23.224Z,0.60
2024-05-09T21:24:26.275Z,1.17
2024-05-09T21:27:30.247Z,0.70
2024-05-09T21:30:41.272Z,0.60
2024-05-09T21:33:46.796Z,0.95
2024-05-09T21:36:50.593Z,0.65
2024-05-09T21:39:55.156Z,0.63
2024-05-09T21:42:59.332Z,0.65
2024-05-09T21:46:03.496Z,0.40
2024-05-09T21:49:06.585Z,0.30
2024-05-09T21:52:13.282Z,0.35
2024-05-09T21:55:19.719Z,0.30
2024-05-09T21:58:24.671Z,0.32
2024-05-09T22:01:28.625Z,0.38
2024-05-09T22:04:32.934Z,0.45
2024-05-09T22:07:36.278Z,0.20
2024-05-09T22:10:40.684Z,0.40
2024-05-09T22:13:44.468Z,0.50
2024-05-09T22:16:47.825Z,0.52
2024-05-09T22:19:51.378Z,0.20
2024-05-09T22:22:55.641Z,0.40
2024-05-09T22:25:59.518Z,0.50
2024-05-09T22:29:03.510Z,0.40
2024-05-09T22:32:07.268Z,1.08
2024-05-09T22:35:13.916Z,0.50
2024-05-09T22:38:18.095Z,0.70
2024-05-09T22:41:21.567Z,0.70
2024-05-09T22:44:25.954Z,0.40
2024-05-09T22:47:29.142Z,0.95
2024-05-09T22:50:33.732Z,1.00
2024-05-09T22:53:37.853Z,0.60
2024-05-09T22:56:41.740Z,0.60
2024-05-09T22:59:45.668Z,0.77
2024-05-09T23:02:49.314Z,0.80
2024-05-09T23:05:53.216Z,1.00
2024-05-09T23:08:57.545Z,1.52
2024-05-09T23:12:01.574Z,1.20
2024-05-09T23:15:05.549Z,1.58
2024-05-09T23:18:12.102Z,1.70
2024-05-09T23:21:18.945Z,1.35
2024-05-09T23:27:26.475Z,1.50
2024-05-09T23:30:37.347Z,1.42
2024-05-09T23:33:48.202Z,1.15
2024-05-09T23:36:51.784Z,0.88
2024-05-09T23:39:57.177Z,1.10
2024-05-09T23:43:01.071Z,1.33
2024-05-09T23:46:05.939Z,1.30
2024-05-09T23:49:13.096Z,1.58
2024-05-09T23:52:17.668Z,2.30
2024-05-09T23:55:21.090Z,2.08
2024-05-09T23:58:26.748Z,1.60
